createdAt,value
2023-03-02T00:00:45.696Z,31.55
2023-03-02T00:03:13.726Z,31.60
2023-03-02T00:05:40.622Z,33.13
2023-03-02T00:08:08.946Z,31.13
2023-03-02T00:10:36.350Z,32.08
2023-03-02T00:13:15.049Z,32.22
2023-03-02T00:15:41.597Z,31.23
2023-03-02T00:18:08.153Z,33.20
2023-03-02T00:20:34.906Z,32.92
2023-03-02T00:23:01.518Z,30.85
2023-03-02T00:25:28.111Z,31.33
2023-03-02T00:27:54.753Z,32.15
2023-03-02T00:30:22.013Z,33.08
2023-03-02T00:32:51.675Z,32.45
2023-03-02T00:35:18.510Z,31.98
2023-03-02T00:37:45.068Z,31.55
2023-03-02T00:40:12.209Z,32.08
2023-03-02T00:42:38.772Z,32.28
2023-03-02T00:45:05.987Z,30.85
2023-03-02T00:47:36.891Z,32.38
2023-03-02T00:50:06.267Z,31.48
2023-03-02T00:52:33.426Z,32.50
2023-03-02T00:54:59.974Z,32.50
2023-03-02T00:57:26.459Z,32.25
2023-03-02T00:59:53.574Z,30.83
2023-03-02T01:02:20.143Z,31.55
2023-03-02T01:04:47.220Z,29.35
2023-03-02T01:07:18.211Z,32.30
2023-03-02T01:09:45.330Z,31.33
2023-03-02T01:12:12.355Z,31.73
2023-03-02T01:14:41.454Z,32.65
2023-03-02T01:17:10.193Z,32.50
2023-03-02T01:19:37.862Z,31.95
2023-03-02T01:22:04.517Z,30.30
2023-03-02T01:24:31.048Z,31.35
2023-03-02T01:26:57.559Z,31.70
2023-03-02T01:29:24.053Z,32.03
2023-03-02T01:31:51.309Z,30.98
2023-03-02T01:34:17.885Z,30.75
2023-03-02T01:36:46.769Z,32.03
2023-03-02T01:39:13.787Z,31.35
2023-03-02T01:41:43.517Z,32.22
2023-03-02T01:44:48.234Z,31.75
2023-03-02T01:47:27.522Z,31.30
2023-03-02T01:50:01.620Z,31.65
2023-03-02T01:52:29.552Z,29.73
2023-03-02T01:54:58.127Z,31.75
2023-03-02T01:57:28.765Z,30.77
2023-03-02T01:59:59.717Z,31.63
2023-03-02T02:02:26.526Z,31.80
2023-03-02T02:04:55.032Z,31.67
2023-03-02T02:07:21.719Z,30.50
2023-03-02T02:09:50.290Z,29.95
2023-03-02T02:12:19.750Z,29.17
2023-03-02T02:14:47.191Z,31.10
2023-03-02T02:17:14.898Z,31.05
2023-03-02T02:20:13.728Z,30.80
2023-03-02T02:23:14.244Z,30.83
2023-03-02T02:25:52.640Z,29.50
2023-03-02T02:28:26.920Z,31.52
2023-03-02T02:31:24.723Z,32.45
2023-03-02T02:33:55.613Z,30.02
2023-03-02T02:36:26.408Z,31.55
2023-03-02T02:38:55.106Z,30.08
2023-03-02T02:41:25.070Z,31.35
2023-03-02T02:43:51.974Z,31.63
2023-03-02T02:46:18.744Z,31.52
2023-03-02T02:48:48.715Z,31.20
2023-03-02T02:51:20.361Z,32.38
2023-03-02T02:53:56.551Z,32.17
2023-03-02T02:56:26.614Z,32.13
2023-03-02T02:58:55.060Z,30.50
2023-03-02T03:01:23.341Z,32.45
2023-03-02T03:03:56.824Z,29.92
2023-03-02T03:06:33.237Z,30.67
2023-03-02T03:09:03.014Z,29.92
2023-03-02T03:11:31.609Z,30.42
2023-03-02T03:14:05.511Z,29.48
2023-03-02T03:16:33.293Z,30.13
2023-03-02T03:19:05.911Z,31.13
2023-03-02T03:21:32.709Z,32.65
2023-03-02T03:24:00.062Z,31.42
2023-03-02T03:26:26.579Z,32.55
2023-03-02T03:28:53.093Z,31.75
2023-03-02T03:31:19.661Z,31.20
2023-03-02T03:33:46.857Z,31.58
2023-03-02T03:36:13.637Z,31.38
2023-03-02T03:38:42.921Z,32.30
2023-03-02T03:41:09.454Z,31.58
2023-03-02T03:43:36.227Z,33.17
2023-03-02T03:46:02.810Z,32.95
2023-03-02T03:48:29.439Z,30.75
2023-03-02T03:50:55.935Z,32.95
2023-03-02T03:53:23.585Z,32.50
2023-03-02T03:55:50.076Z,31.42
2023-03-02T03:58:16.768Z,32.47
2023-03-02T04:00:43.318Z,31.85
2023-03-02T04:03:09.863Z,32.45
2023-03-02T04:05:36.360Z,32.22
2023-03-02T04:08:02.906Z,33.35
2023-03-02T04:10:29.526Z,32.03
2023-03-02T04:12:56.561Z,31.17
2023-03-02T04:15:23.421Z,29.23
2023-03-02T04:17:49.978Z,31.65
2023-03-02T04:20:17.933Z,32.88
2023-03-02T04:22:47.117Z,31.48
2023-03-02T04:25:15.161Z,32.00
2023-03-02T04:27:43.550Z,30.65
2023-03-02T04:30:11.514Z,30.73
2023-03-02T04:32:38.144Z,31.60
2023-03-02T04:35:05.222Z,33.05
2023-03-02T04:37:31.767Z,32.55
2023-03-02T04:39:58.396Z,33.00
2023-03-02T04:42:24.906Z,31.65
2023-03-02T04:44:51.891Z,32.42
2023-03-02T04:47:18.427Z,32.92
2023-03-02T04:49:45.245Z,32.08
2023-03-02T04:52:12.008Z,33.35
2023-03-02T04:54:38.553Z,33.17
2023-03-02T04:57:05.107Z,32.60
2023-03-02T04:59:31.626Z,32.65
2023-03-02T05:01:59.720Z,33.80
2023-03-02T05:04:27.900Z,33.83
2023-03-02T05:06:54.993Z,33.85
2023-03-02T05:09:21.706Z,32.95
2023-03-02T05:11:48.190Z,32.30
2023-03-02T05:14:17.242Z,32.83
2023-03-02T05:16:43.931Z,32.38
2023-03-02T05:19:11.696Z,32.10
2023-03-02T05:21:39.246Z,34.08
2023-03-02T05:24:06.118Z,34.17
2023-03-02T05:26:32.938Z,34.42
2023-03-02T05:28:59.721Z,32.28
2023-03-02T05:31:35.321Z,33.25
2023-03-02T05:34:03.450Z,33.70
2023-03-02T05:36:30.349Z,32.90
2023-03-02T05:38:56.982Z,32.00
2023-03-02T05:41:23.582Z,32.95
2023-03-02T05:43:50.179Z,34.17
2023-03-02T05:46:17.079Z,32.40
2023-03-02T05:48:43.786Z,32.65
2023-03-02T05:51:10.359Z,32.63
2023-03-02T05:53:37.190Z,32.38
2023-03-02T05:56:03.874Z,33.10
2023-03-02T05:58:30.350Z,32.92
2023-03-02T06:00:57.890Z,32.08
2023-03-02T06:03:24.436Z,32.30
2023-03-02T06:05:51.165Z,33.90
2023-03-02T06:08:21.146Z,33.30
2023-03-02T06:10:48.275Z,32.80
2023-03-02T06:13:14.856Z,31.95
2023-03-02T06:15:44.383Z,33.03
2023-03-02T06:18:10.955Z,32.90
2023-03-02T06:20:37.459Z,35.08
2023-03-02T06:23:03.954Z,32.80
2023-03-02T06:25:30.633Z,32.53
2023-03-02T06:27:57.592Z,34.38
2023-03-02T06:30:25.783Z,33.80
2023-03-02T06:32:52.435Z,32.50
2023-03-02T06:35:19.347Z,33.80
2023-03-02T06:37:45.951Z,32.58
2023-03-02T06:40:13.234Z,32.72
2023-03-02T06:42:40.809Z,33.65
2023-03-02T06:45:08.174Z,33.75
2023-03-02T06:47:34.669Z,33.03
2023-03-02T06:50:01.275Z,32.42
2023-03-02T06:52:28.090Z,33.70
2023-03-02T06:54:55.091Z,32.63
2023-03-02T06:57:21.610Z,32.35
2023-03-02T06:59:48.104Z,32.30
2023-03-02T07:02:14.632Z,33.45
2023-03-02T07:04:41.900Z,32.25
2023-03-02T07:07:09.546Z,32.58
2023-03-02T07:09:36.089Z,32.53
2023-03-02T07:12:02.569Z,32.28
2023-03-02T07:14:29.074Z,31.15
2023-03-02T07:16:55.613Z,31.77
2023-03-02T07:19:22.114Z,32.80
2023-03-02T07:21:48.641Z,33.95
2023-03-02T07:24:15.168Z,33.25
2023-03-02T07:26:41.765Z,32.85
2023-03-02T07:29:08.270Z,33.00
2023-03-02T07:31:35.096Z,33.17
2023-03-02T07:34:01.724Z,34.55
2023-03-02T07:36:28.283Z,32.63
2023-03-02T07:38:54.777Z,34.00
2023-03-02T07:41:21.355Z,33.47
2023-03-02T07:43:47.872Z,32.78
2023-03-02T07:46:14.430Z,32.08
2023-03-02T07:48:41.489Z,32.35
2023-03-02T07:51:07.987Z,33.03
2023-03-02T07:53:34.861Z,32.42
2023-03-02T07:56:06.546Z,33.08
2023-03-02T07:58:33.043Z,32.60
2023-03-02T08:00:59.656Z,33.15
2023-03-02T08:03:26.416Z,31.67
2023-03-02T08:05:52.883Z,33.60
2023-03-02T08:08:19.407Z,31.58
2023-03-02T08:10:45.908Z,31.73
2023-03-02T08:13:15.519Z,31.45
2023-03-02T08:15:42.030Z,31.98
2023-03-02T08:18:10.528Z,31.27
2023-03-02T08:20:40.141Z,32.47
2023-03-02T08:23:08.624Z,32.67
2023-03-02T08:25:35.139Z,32.03
2023-03-02T08:28:01.635Z,31.50
2023-03-02T08:30:28.242Z,31.73
2023-03-02T08:32:55.279Z,30.77
2023-03-02T08:35:21.946Z,32.92
2023-03-02T08:37:48.453Z,32.72
2023-03-02T08:40:17.036Z,32.72
2023-03-02T08:42:43.537Z,34.15
2023-03-02T08:45:10.253Z,32.15
2023-03-02T08:47:38.730Z,33.40
2023-03-02T08:50:05.860Z,32.25
2023-03-02T08:52:35.234Z,33.25
2023-03-02T08:55:03.742Z,34.35
2023-03-02T08:57:30.675Z,32.83
2023-03-02T08:59:57.294Z,32.88
2023-03-02T09:02:23.857Z,31.48
2023-03-02T09:04:50.412Z,32.75
2023-03-02T09:07:17.034Z,32.90
2023-03-02T09:09:43.817Z,33.40
2023-03-02T09:12:10.401Z,32.65
2023-03-02T09:14:36.965Z,33.10
2023-03-02T09:17:03.466Z,31.65
2023-03-02T09:19:30.000Z,31.58
2023-03-02T09:21:56.528Z,33.47
2023-03-02T09:24:23.055Z,33.50
2023-03-02T09:26:49.532Z,33.33
2023-03-02T09:29:16.021Z,33.83
2023-03-02T09:31:42.622Z,32.72
2023-03-02T09:34:09.698Z,32.75
2023-03-02T09:36:36.386Z,33.63
2023-03-02T09:39:02.962Z,32.17
2023-03-02T09:41:37.198Z,32.50
2023-03-02T09:44:25.619Z,31.33
2023-03-02T09:47:35.775Z,30.05
2023-03-02T09:50:17.103Z,32.60
2023-03-02T09:53:06.837Z,30.35
2023-03-02T09:55:36.374Z,31.52
2023-03-02T09:58:07.031Z,32.13
2023-03-02T10:00:39.372Z,33.40
2023-03-02T10:03:19.899Z,32.20
2023-03-02T10:05:48.837Z,31.75
2023-03-02T10:08:18.337Z,32.03
2023-03-02T10:10:53.271Z,31.33
2023-03-02T10:13:22.361Z,33.42
2023-03-02T10:15:57.881Z,33.33
2023-03-02T10:18:32.892Z,32.33
2023-03-02T10:21:16.485Z,33.30
2023-03-02T10:23:52.151Z,31.77
2023-03-02T10:26:24.744Z,31.70
2023-03-02T10:29:07.895Z,32.08
2023-03-02T10:31:34.387Z,32.38
2023-03-02T10:34:01.260Z,31.52
2023-03-02T10:36:36.032Z,31.60
2023-03-02T10:39:03.485Z,32.72
2023-03-02T10:41:36.540Z,30.63
2023-03-02T10:44:31.441Z,30.85
2023-03-02T10:46:58.022Z,31.88
2023-03-02T10:49:32.679Z,31.23
2023-03-02T10:52:03.032Z,31.67
2023-03-02T10:57:02.911Z,31.90
2023-03-02T10:59:39.429Z,31.20
2023-03-02T11:02:14.129Z,31.38
2023-03-02T11:04:40.844Z,31.80
2023-03-02T11:07:15.692Z,30.85
2023-03-02T11:09:44.756Z,31.17
2023-03-02T11:12:15.323Z,31.10
2023-03-02T11:14:41.836Z,31.95
2023-03-02T11:17:40.448Z,33.65
2023-03-02T11:20:15.178Z,31.55
2023-03-02T11:23:19.647Z,31.60
2023-03-02T11:25:53.145Z,30.80
2023-03-02T11:28:25.747Z,33.08
2023-03-02T11:30:53.894Z,31.85
2023-03-02T11:33:26.005Z,31.85
2023-03-02T11:35:59.308Z,32.15
2023-03-02T11:38:28.915Z,31.27
2023-03-02T11:41:14.191Z,32.30
2023-03-02T11:43:41.030Z,33.20
2023-03-02T11:46:21.657Z,32.17
2023-03-02T11:48:51.780Z,31.83
2023-03-02T11:51:23.696Z,32.30
2023-03-02T11:53:58.586Z,33.05
2023-03-02T11:56:26.790Z,32.78
2023-03-02T11:58:59.053Z,33.53
2023-03-02T12:01:26.972Z,32.03
2023-03-02T12:03:53.896Z,33.50
2023-03-02T12:06:20.296Z,32.58
2023-03-02T12:08:49.512Z,33.30
2023-03-02T12:11:19.102Z,32.88
2023-03-02T12:13:54.559Z,33.25
2023-03-02T12:16:37.238Z,32.35
2023-03-02T12:19:16.043Z,35.45
2023-03-02T12:21:56.635Z,32.78
2023-03-02T12:24:28.752Z,32.50
2023-03-02T12:27:01.295Z,33.10
2023-03-02T12:29:38.856Z,32.50
2023-03-02T12:32:23.699Z,33.25
2023-03-02T12:34:56.683Z,32.97
2023-03-02T12:37:32.061Z,35.42
2023-03-02T12:40:18.475Z,32.95
2023-03-02T12:42:53.953Z,32.88
2023-03-02T12:45:25.026Z,33.78
2023-03-02T12:48:00.897Z,33.65
2023-03-02T12:50:30.989Z,33.75
2023-03-02T12:53:05.573Z,34.40
2023-03-02T12:55:32.548Z,33.65
2023-03-02T12:58:01.882Z,32.65
2023-03-02T13:00:31.825Z,34.60
2023-03-02T13:02:59.770Z,34.85
2023-03-02T13:05:32.815Z,33.92
2023-03-02T13:08:02.110Z,35.10
2023-03-02T13:10:38.244Z,34.33
2023-03-02T13:13:14.979Z,32.70
2023-03-02T13:15:56.202Z,33.03
2023-03-02T13:18:24.682Z,33.08
2023-03-02T13:20:51.948Z,34.45
2023-03-02T13:23:19.202Z,34.13
2023-03-02T13:25:57.829Z,34.63
2023-03-02T13:28:29.626Z,33.65
2023-03-02T13:31:05.545Z,32.58
2023-03-02T13:33:33.920Z,33.35
2023-03-02T13:36:00.434Z,32.97
2023-03-02T13:38:31.499Z,33.90
2023-03-02T13:40:58.058Z,35.13
2023-03-02T13:43:34.704Z,34.40
2023-03-02T13:46:05.442Z,33.33
2023-03-02T13:48:32.485Z,33.30
2023-03-02T13:51:17.651Z,34.58
2023-03-02T13:53:52.031Z,33.63
2023-03-02T13:56:21.414Z,34.70
2023-03-02T13:58:49.066Z,33.35
2023-03-02T14:01:15.890Z,34.25
2023-03-02T14:03:42.537Z,32.95
2023-03-02T14:06:09.337Z,33.30
2023-03-02T14:08:35.913Z,33.78
2023-03-02T14:11:04.278Z,33.42
2023-03-02T14:13:37.540Z,31.98
2023-03-02T14:16:04.601Z,33.75
2023-03-02T14:18:37.717Z,34.47
2023-03-02T14:21:05.078Z,34.50
2023-03-02T14:23:33.927Z,33.45
2023-03-02T14:26:00.508Z,33.05
2023-03-02T14:28:33.908Z,33.25
2023-03-02T14:31:00.404Z,32.70
2023-03-02T14:33:27.165Z,33.58
2023-03-02T14:35:56.665Z,33.35
2023-03-02T14:38:25.013Z,34.85
2023-03-02T14:40:52.257Z,35.00
2023-03-02T14:43:18.881Z,33.72
2023-03-02T14:45:46.341Z,34.95
2023-03-02T14:48:13.051Z,34.22
2023-03-02T14:50:41.168Z,34.25
2023-03-02T14:53:12.852Z,35.35
2023-03-02T14:55:40.525Z,33.42
2023-03-02T14:58:13.092Z,32.42
2023-03-02T15:00:39.587Z,32.65
2023-03-02T15:03:06.241Z,31.83
2023-03-02T15:05:36.929Z,31.77
2023-03-02T15:08:03.539Z,32.83
2023-03-02T15:10:35.836Z,32.88
2023-03-02T15:13:04.465Z,33.15
2023-03-02T15:15:32.718Z,33.00
2023-03-02T15:17:59.200Z,32.95
2023-03-02T15:20:25.655Z,34.58
2023-03-02T15:22:52.598Z,34.15
2023-03-02T15:25:19.096Z,33.30
2023-03-02T15:27:45.733Z,32.60
2023-03-02T15:30:12.451Z,32.10
2023-03-02T15:32:39.064Z,33.05
2023-03-02T15:35:06.250Z,32.63
2023-03-02T15:37:35.297Z,32.95
2023-03-02T15:40:01.762Z,32.00
2023-03-02T15:42:31.387Z,33.10
2023-03-02T15:44:57.881Z,31.67
2023-03-02T15:47:24.578Z,32.45
2023-03-02T15:49:53.679Z,32.95
2023-03-02T15:52:21.329Z,31.50
2023-03-02T15:54:48.007Z,32.90
2023-03-02T15:57:14.549Z,32.83
2023-03-02T15:59:41.058Z,31.33
2023-03-02T16:02:07.563Z,32.97
2023-03-02T16:04:34.078Z,32.33
2023-03-02T16:07:01.002Z,31.48
2023-03-02T16:09:27.982Z,32.92
2023-03-02T16:11:54.537Z,32.75
2023-03-02T16:14:21.018Z,32.67
2023-03-02T16:16:48.184Z,32.83
2023-03-02T16:19:18.883Z,31.92
2023-03-02T16:21:48.669Z,31.65
2023-03-02T16:24:15.576Z,24.67
2023-03-02T16:26:42.667Z,32.25
2023-03-02T16:29:12.834Z,31.60
2023-03-02T16:31:41.395Z,32.92
2023-03-02T16:34:10.066Z,31.97
2023-03-02T16:36:38.796Z,31.65
2023-03-02T16:39:06.745Z,32.25
2023-03-02T16:41:34.004Z,32.72
2023-03-02T16:44:01.322Z,31.38
2023-03-02T16:46:30.866Z,32.50
2023-03-02T16:48:58.339Z,32.25
2023-03-02T16:51:25.107Z,31.60
2023-03-02T16:53:52.205Z,33.53
2023-03-02T16:56:18.912Z,33.75
2023-03-02T16:58:45.596Z,32.95
2023-03-02T17:01:15.809Z,32.78
2023-03-02T17:03:42.763Z,31.98
2023-03-02T17:06:10.597Z,31.85
2023-03-02T17:08:37.111Z,31.92
2023-03-02T17:11:03.766Z,31.95
2023-03-02T17:13:31.430Z,32.13
2023-03-02T17:15:58.522Z,32.92
2023-03-02T17:18:25.652Z,31.52
2023-03-02T17:20:54.172Z,33.47
2023-03-02T17:23:21.074Z,33.03
2023-03-02T17:25:49.514Z,32.15
2023-03-02T17:28:16.385Z,31.52
2023-03-02T17:30:43.508Z,31.80
2023-03-02T17:33:10.637Z,31.80
2023-03-02T17:35:37.612Z,31.27
2023-03-02T17:38:04.980Z,32.40
2023-03-02T17:40:32.248Z,34.40
2023-03-02T17:43:03.116Z,41.03
2023-03-02T17:45:30.248Z,36.38
2023-03-02T17:48:00.856Z,34.78
2023-03-02T17:50:28.886Z,35.92
2023-03-02T17:52:55.553Z,36.28
2023-03-02T17:55:22.658Z,37.58
2023-03-02T17:57:49.865Z,35.65
2023-03-02T18:00:20.028Z,36.03
2023-03-02T18:02:46.554Z,36.15
2023-03-02T18:05:14.158Z,38.47
2023-03-02T18:07:41.420Z,36.85
2023-03-02T18:10:08.556Z,36.15
2023-03-02T18:12:35.057Z,38.05
2023-03-02T18:15:01.695Z,37.15
2023-03-02T18:17:29.310Z,38.03
2023-03-02T18:19:56.397Z,36.78
2023-03-02T18:22:23.314Z,35.25
2023-03-02T18:24:49.918Z,35.38
2023-03-02T18:27:16.504Z,44.72
2023-03-02T18:29:43.092Z,43.15
2023-03-02T18:32:11.071Z,38.92
2023-03-02T18:34:37.788Z,39.67
2023-03-02T18:37:04.319Z,37.30
2023-03-02T18:39:30.840Z,38.38
2023-03-02T18:41:57.605Z,36.15
2023-03-02T18:44:24.145Z,36.47
2023-03-02T18:46:51.320Z,36.47
2023-03-02T18:49:20.154Z,39.03
2023-03-02T18:51:46.792Z,39.83
2023-03-02T18:54:14.713Z,38.22
2023-03-02T18:56:41.260Z,37.35
2023-03-02T18:59:08.054Z,39.42
2023-03-02T19:01:34.654Z,36.33
2023-03-02T19:04:01.526Z,37.67
2023-03-02T19:06:28.815Z,36.83
2023-03-02T19:08:55.378Z,35.25
2023-03-02T19:11:22.511Z,34.80
2023-03-02T19:13:50.170Z,34.20
2023-03-02T19:16:18.370Z,34.72
2023-03-02T19:18:45.169Z,35.05
2023-03-02T19:21:11.975Z,34.35
2023-03-02T19:23:39.154Z,37.42
2023-03-02T19:26:05.695Z,35.92
2023-03-02T19:28:32.220Z,35.80
2023-03-02T19:31:03.872Z,36.20
2023-03-02T19:33:30.384Z,34.38
2023-03-02T19:35:58.083Z,34.85
2023-03-02T19:38:25.052Z,32.92
2023-03-02T19:40:51.607Z,36.47
2023-03-02T19:43:21.705Z,37.42
2023-03-02T19:45:48.262Z,34.22
2023-03-02T19:48:14.778Z,36.75
2023-03-02T19:50:41.788Z,33.28
2023-03-02T19:53:08.315Z,35.35
2023-03-02T19:55:35.986Z,36.92
2023-03-02T19:58:02.705Z,38.78
2023-03-02T20:00:32.337Z,34.58
2023-03-02T20:03:00.313Z,38.17
2023-03-02T20:05:27.823Z,35.97
2023-03-02T20:07:54.790Z,36.90
2023-03-02T20:10:26.547Z,38.90
2023-03-02T20:12:53.654Z,36.70
2023-03-02T20:15:21.314Z,36.60
2023-03-02T20:17:48.299Z,37.90
2023-03-02T20:20:14.800Z,38.05
2023-03-02T20:22:41.513Z,35.58
2023-03-02T20:25:09.133Z,36.70
2023-03-02T20:27:35.660Z,36.00
2023-03-02T20:30:02.260Z,36.55
2023-03-02T20:32:29.166Z,37.25
2023-03-02T20:34:55.937Z,37.58
2023-03-02T20:37:22.477Z,37.00
2023-03-02T20:39:49.024Z,35.90
2023-03-02T20:42:15.496Z,36.53
2023-03-02T20:44:43.646Z,37.13
2023-03-02T20:47:13.407Z,35.20
2023-03-02T20:49:40.606Z,36.22
2023-03-02T20:52:08.525Z,36.50
2023-03-02T20:54:40.361Z,36.10
2023-03-02T20:57:08.033Z,37.90
2023-03-02T20:59:36.620Z,37.55
2023-03-02T21:02:03.340Z,38.15
2023-03-02T21:04:29.948Z,37.03
2023-03-02T21:06:56.500Z,38.67
2023-03-02T21:09:22.990Z,38.97
2023-03-02T21:11:49.492Z,37.55
2023-03-02T21:14:16.246Z,37.92
2023-03-02T21:16:43.760Z,36.95
2023-03-02T21:19:14.436Z,38.13
2023-03-02T21:21:42.398Z,37.75
2023-03-02T21:24:11.147Z,38.83
2023-03-02T21:26:37.763Z,41.13
2023-03-02T21:29:05.473Z,40.40
2023-03-02T21:31:32.429Z,38.30
2023-03-02T21:33:59.025Z,39.97
2023-03-02T21:36:25.664Z,39.15
2023-03-02T21:38:52.752Z,38.50
2023-03-02T21:41:19.398Z,37.63
2023-03-02T21:43:45.998Z,37.28
2023-03-02T21:46:14.434Z,38.92
2023-03-02T21:48:41.591Z,38.63
2023-03-02T21:51:11.109Z,40.33
2023-03-02T21:53:39.010Z,39.90
2023-03-02T21:56:09.492Z,39.63
2023-03-02T22:01:03.425Z,37.42
2023-03-02T22:03:29.921Z,40.42
2023-03-02T22:05:56.381Z,39.00
2023-03-02T22:08:23.250Z,41.00
2023-03-02T22:10:51.437Z,40.60
2023-03-02T22:13:24.118Z,41.38
2023-03-02T22:16:13.584Z,39.85
2023-03-02T22:18:46.181Z,41.00
2023-03-02T22:21:45.401Z,39.83
2023-03-02T22:24:11.912Z,40.03
2023-03-02T22:27:10.706Z,40.15
2023-03-02T22:29:45.716Z,41.67
2023-03-02T22:32:21.801Z,40.95
2023-03-02T22:34:56.548Z,40.88
2023-03-02T22:37:25.952Z,41.65
2023-03-02T22:39:55.890Z,40.15
2023-03-02T22:42:24.681Z,42.08
2023-03-02T22:45:01.737Z,42.28
2023-03-02T22:47:28.329Z,42.05
2023-03-02T22:50:11.641Z,42.85
2023-03-02T22:52:39.241Z,42.50
2023-03-02T22:55:44.141Z,40.55
2023-03-02T22:58:48.065Z,44.75
2023-03-02T23:01:20.786Z,40.60
2023-03-02T23:03:53.042Z,40.75
2023-03-02T23:06:30.091Z,40.55
2023-03-02T23:09:02.138Z,44.85
2023-03-02T23:11:32.250Z,48.08
2023-03-02T23:14:00.688Z,53.58
2023-03-02T23:16:29.010Z,51.03
2023-03-02T23:18:56.812Z,50.63
2023-03-02T23:21:37.471Z,47.10
2023-03-02T23:24:04.439Z,47.08
2023-03-02T23:26:30.975Z,48.08
2023-03-02T23:28:57.533Z,47.70
2023-03-02T23:31:24.465Z,48.65
2023-03-02T23:33:51.241Z,50.25
2023-03-02T23:36:17.737Z,51.55
2023-03-02T23:38:44.244Z,49.28
2023-03-02T23:41:10.772Z,49.05
2023-03-02T23:43:38.422Z,47.97
2023-03-02T23:46:05.593Z,52.13
2023-03-02T23:48:32.802Z,50.90
2023-03-02T23:50:59.686Z,53.22
2023-03-02T23:53:26.569Z,53.72
2023-03-02T23:55:54.542Z,53.45
2023-03-02T23:58:23.225Z,54.95
